sensor_id;sensor_type;location;lat;lon;timestamp;P1;durP1;ratioP1;P2;durP2;ratioP2
12114;SDS011;6121;49.810;6.418;2022-09-20T00:00:37;4.22;;;4.03;;
12114;SDS011;6121;49.810;6.418;2022-09-20T00:03:03;3.60;;;3.40;;
12114;SDS011;6121;49.810;6.418;2022-09-20T00:05:29;5.23;;;4.93;;
12114;SDS011;6121;49.810;6.418;2022-09-20T00:07:58;4.13;;;3.92;;
12114;SDS011;6121;49.810;6.418;2022-09-20T00:10:24;3.95;;;3.75;;
12114;SDS011;6121;49.810;6.418;2022-09-20T00:12:51;5.28;;;4.88;;
12114;SDS011;6121;49.810;6.418;2022-09-20T00:15:17;4.47;;;4.28;;
12114;SDS011;6121;49.810;6.418;2022-09-20T00:17:42;4.13;;;3.92;;
12114;SDS011;6121;49.810;6.418;2022-09-20T00:20:08;3.80;;;3.60;;
12114;SDS011;6121;49.810;6.418;2022-09-20T00:22:34;3.87;;;3.67;;
12114;SDS011;6121;49.810;6.418;2022-09-20T00:24:59;5.20;;;4.97;;
12114;SDS011;6121;49.810;6.418;2022-09-20T00:27:25;3.20;;;3.10;;
12114;SDS011;6121;49.810;6.418;2022-09-20T00:29:51;3.53;;;3.33;;
12114;SDS011;6121;49.810;6.418;2022-09-20T00:32:17;3.38;;;3.28;;
12114;SDS011;6121;49.810;6.418;2022-09-20T00:34:43;5.22;;;5.03;;
12114;SDS011;6121;49.810;6.418;2022-09-20T00:37:27;3.10;;;2.90;;
12114;SDS011;6121;49.810;6.418;2022-09-20T00:39:53;3.63;;;3.43;;
12114;SDS011;6121;49.810;6.418;2022-09-20T00:42:18;3.70;;;3.50;;
12114;SDS011;6121;49.810;6.418;2022-09-20T00:44:57;4.85;;;4.65;;
12114;SDS011;6121;49.810;6.418;2022-09-20T00:50:09;3.53;;;3.43;;
12114;SDS011;6121;49.810;6.418;2022-09-20T00:52:47;3.30;;;3.20;;
12114;SDS011;6121;49.810;6.418;2022-09-20T00:55:14;4.63;;;4.43;;
12114;SDS011;6121;49.810;6.418;2022-09-20T00:57:40;3.50;;;3.40;;
12114;SDS011;6121;49.810;6.418;2022-09-20T01:00:08;3.42;;;3.33;;
12114;SDS011;6121;49.810;6.418;2022-09-20T01:02:36;3.40;;;3.30;;
12114;SDS011;6121;49.810;6.418;2022-09-20T01:05:06;4.87;;;4.67;;
12114;SDS011;6121;49.810;6.418;2022-09-20T01:07:33;3.30;;;3.13;;
12114;SDS011;6121;49.810;6.418;2022-09-20T01:10:00;3.17;;;3.08;;
12114;SDS011;6121;49.810;6.418;2022-09-20T01:12:27;2.80;;;2.67;;
12114;SDS011;6121;49.810;6.418;2022-09-20T01:14:56;4.50;;;4.20;;
12114;SDS011;6121;49.810;6.418;2022-09-20T01:17:23;3.15;;;3.05;;
12114;SDS011;6121;49.810;6.418;2022-09-20T01:20:02;3.42;;;3.22;;
12114;SDS011;6121;49.810;6.418;2022-09-20T01:28:25;3.53;;;3.33;;
12114;SDS011;6121;49.810;6.418;2022-09-20T01:33:43;3.40;;;3.30;;
12114;SDS011;6121;49.810;6.418;2022-09-20T01:36:12;3.28;;;3.08;;
12114;SDS011;6121;49.810;6.418;2022-09-20T01:38:44;3.15;;;3.05;;
12114;SDS011;6121;49.810;6.418;2022-09-20T01:44:37;3.80;;;3.65;;
12114;SDS011;6121;49.810;6.418;2022-09-20T01:58:32;3.30;;;3.20;;
12114;SDS011;6121;49.810;6.418;2022-09-20T02:11:45;2.80;;;2.70;;
12114;SDS011;6121;49.810;6.418;2022-09-20T02:20:37;3.13;;;3.03;;
12114;SDS011;6121;49.810;6.418;2022-09-20T02:29:07;3.15;;;3.05;;
12114;SDS011;6121;49.810;6.418;2022-09-20T02:34:48;4.83;;;4.63;;
12114;SDS011;6121;49.810;6.418;2022-09-20T02:48:12;3.05;;;2.85;;
12114;SDS011;6121;49.810;6.418;2022-09-20T02:50:48;3.88;;;3.58;;
12114;SDS011;6121;49.810;6.418;2022-09-20T02:53:34;3.40;;;3.20;;
12114;SDS011;6121;49.810;6.418;2022-09-20T03:07:08;3.25;;;3.05;;
12114;SDS011;6121;49.810;6.418;2022-09-20T03:10:13;3.47;;;3.27;;
12114;SDS011;6121;49.810;6.418;2022-09-20T03:18:26;4.07;;;3.88;;
12114;SDS011;6121;49.810;6.418;2022-09-20T03:21:28;3.50;;;3.30;;
12114;SDS011;6121;49.810;6.418;2022-09-20T03:24:21;3.97;;;3.78;;
12114;SDS011;6121;49.810;6.418;2022-09-20T03:27:27;3.20;;;3.07;;
12114;SDS011;6121;49.810;6.418;2022-09-20T03:30:18;3.67;;;3.38;;
12114;SDS011;6121;49.810;6.418;2022-09-20T03:32:49;3.17;;;3.05;;
12114;SDS011;6121;49.810;6.418;2022-09-20T03:35:42;5.07;;;4.78;;
12114;SDS011;6121;49.810;6.418;2022-09-20T03:38:31;4.35;;;3.95;;
12114;SDS011;6121;49.810;6.418;2022-09-20T03:46:28;5.35;;;5.05;;
12114;SDS011;6121;49.810;6.418;2022-09-20T03:55:18;5.32;;;5.03;;
12114;SDS011;6121;49.810;6.418;2022-09-20T04:03:41;4.30;;;4.10;;
12114;SDS011;6121;49.810;6.418;2022-09-20T04:09:42;5.03;;;4.75;;
12114;SDS011;6121;49.810;6.418;2022-09-20T04:15:19;7.03;;;6.63;;
12114;SDS011;6121;49.810;6.418;2022-09-20T04:18:11;6.25;;;5.75;;
12114;SDS011;6121;49.810;6.418;2022-09-20T04:20:54;8.10;;;7.13;;
12114;SDS011;6121;49.810;6.418;2022-09-20T04:26:14;7.28;;;6.68;;
12114;SDS011;6121;49.810;6.418;2022-09-20T04:28:45;4.85;;;4.55;;
12114;SDS011;6121;49.810;6.418;2022-09-20T04:33:44;5.70;;;4.77;;
12114;SDS011;6121;49.810;6.418;2022-09-20T04:36:26;4.67;;;4.07;;
12114;SDS011;6121;49.810;6.418;2022-09-20T04:39:04;7.32;;;4.72;;
12114;SDS011;6121;49.810;6.418;2022-09-20T04:42:01;9.98;;;5.75;;
12114;SDS011;6121;49.810;6.418;2022-09-20T04:53:36;6.97;;;6.37;;
12114;SDS011;6121;49.810;6.418;2022-09-20T04:59:05;7.93;;;7.30;;
12114;SDS011;6121;49.810;6.418;2022-09-20T05:10:41;8.15;;;7.53;;
12114;SDS011;6121;49.810;6.418;2022-09-20T05:13:37;9.30;;;8.30;;
12114;SDS011;6121;49.810;6.418;2022-09-20T05:24:52;13.57;;;12.20;;
12114;SDS011;6121;49.810;6.418;2022-09-20T05:27:32;8.45;;;7.75;;
12114;SDS011;6121;49.810;6.418;2022-09-20T05:35:21;8.95;;;8.35;;
12114;SDS011;6121;49.810;6.418;2022-09-20T05:41:03;12.60;;;7.88;;
12114;SDS011;6121;49.810;6.418;2022-09-20T05:43:53;6.72;;;6.20;;
12114;SDS011;6121;49.810;6.418;2022-09-20T05:55:17;3.17;;;3.07;;
12114;SDS011;6121;49.810;6.418;2022-09-20T05:58:07;2.50;;;2.30;;
12114;SDS011;6121;49.810;6.418;2022-09-20T06:00:48;8.05;;;7.10;;
12114;SDS011;6121;49.810;6.418;2022-09-20T06:06:12;12.38;;;9.85;;
12114;SDS011;6121;49.810;6.418;2022-09-20T06:17:41;12.90;;;8.83;;
12114;SDS011;6121;49.810;6.418;2022-09-20T06:20:17;15.90;;;11.63;;
12114;SDS011;6121;49.810;6.418;2022-09-20T06:23:04;9.75;;;8.85;;
12114;SDS011;6121;49.810;6.418;2022-09-20T06:25:36;21.13;;;15.10;;
12114;SDS011;6121;49.810;6.418;2022-09-20T06:28:21;154.18;;;144.65;;
12114;SDS011;6121;49.810;6.418;2022-09-20T06:31:07;6.60;;;5.95;;
12114;SDS011;6121;49.810;6.418;2022-09-20T06:33:44;3.10;;;2.20;;
12114;SDS011;6121;49.810;6.418;2022-09-20T06:36:44;2.17;;;2.08;;
12114;SDS011;6121;49.810;6.418;2022-09-20T06:42:35;2.70;;;2.10;;
12114;SDS011;6121;49.810;6.418;2022-09-20T06:45:03;2.50;;;2.30;;
12114;SDS011;6121;49.810;6.418;2022-09-20T06:47:29;2.20;;;2.00;;
12114;SDS011;6121;49.810;6.418;2022-09-20T06:49:55;2.00;;;1.90;;
12114;SDS011;6121;49.810;6.418;2022-09-20T06:52:22;2.50;;;1.83;;
12114;SDS011;6121;49.810;6.418;2022-09-20T06:54:51;2.50;;;2.35;;
12114;SDS011;6121;49.810;6.418;2022-09-20T06:57:23;2.63;;;2.03;;
12114;SDS011;6121;49.810;6.418;2022-09-20T06:59:56;2.10;;;1.90;;
12114;SDS011;6121;49.810;6.418;2022-09-20T07:02:25;3.95;;;2.28;;
12114;SDS011;6121;49.810;6.418;2022-09-20T07:04:51;3.38;;;2.58;;
12114;SDS011;6121;49.810;6.418;2022-09-20T07:07:19;2.75;;;1.83;;
12114;SDS011;6121;49.810;6.418;2022-09-20T07:09:45;2.88;;;1.90;;
12114;SDS011;6121;49.810;6.418;2022-09-20T07:12:11;2.13;;;1.95;;
12114;SDS011;6121;49.810;6.418;2022-09-20T07:14:37;3.03;;;2.67;;
12114;SDS011;6121;49.810;6.418;2022-09-20T07:17:03;4.65;;;2.30;;
12114;SDS011;6121;49.810;6.418;2022-09-20T07:19:30;3.05;;;2.00;;
12114;SDS011;6121;49.810;6.418;2022-09-20T07:21:56;6.70;;;2.70;;
12114;SDS011;6121;49.810;6.418;2022-09-20T07:24:21;6.30;;;2.88;;
12114;SDS011;6121;49.810;6.418;2022-09-20T07:26:54;5.63;;;2.30;;
12114;SDS011;6121;49.810;6.418;2022-09-20T07:29:21;3.45;;;1.88;;
12114;SDS011;6121;49.810;6.418;2022-09-20T07:31:47;5.63;;;2.20;;
12114;SDS011;6121;49.810;6.418;2022-09-20T07:34:14;2.90;;;2.35;;
12114;SDS011;6121;49.810;6.418;2022-09-20T07:36:44;1.80;;;1.70;;
12114;SDS011;6121;49.810;6.418;2022-09-20T07:39:13;2.00;;;1.90;;
12114;SDS011;6121;49.810;6.418;2022-09-20T07:41:39;2.08;;;1.75;;
12114;SDS011;6121;49.810;6.418;2022-09-20T07:44:04;3.63;;;2.47;;
12114;SDS011;6121;49.810;6.418;2022-09-20T07:46:55;2.17;;;2.00;;
12114;SDS011;6121;49.810;6.418;2022-09-20T07:49:22;2.58;;;2.10;;
12114;SDS011;6121;49.810;6.418;2022-09-20T07:51:49;1.90;;;1.80;;
12114;SDS011;6121;49.810;6.418;2022-09-20T07:54:15;2.90;;;2.30;;
12114;SDS011;6121;49.810;6.418;2022-09-20T07:56:41;3.58;;;2.17;;
12114;SDS011;6121;49.810;6.418;2022-09-20T07:59:07;2.00;;;1.90;;
12114;SDS011;6121;49.810;6.418;2022-09-20T08:01:34;2.25;;;1.90;;
12114;SDS011;6121;49.810;6.418;2022-09-20T08:04:00;2.53;;;2.22;;
12114;SDS011;6121;49.810;6.418;2022-09-20T08:06:26;2.40;;;2.08;;
12114;SDS011;6121;49.810;6.418;2022-09-20T08:08:51;2.08;;;1.98;;
12114;SDS011;6121;49.810;6.418;2022-09-20T08:11:19;1.80;;;1.70;;
12114;SDS011;6121;49.810;6.418;2022-09-20T08:13:54;2.28;;;2.08;;
12114;SDS011;6121;49.810;6.418;2022-09-20T08:16:21;2.20;;;2.00;;
12114;SDS011;6121;49.810;6.418;2022-09-20T08:18:53;2.20;;;2.10;;
12114;SDS011;6121;49.810;6.418;2022-09-20T08:21:22;1.70;;;1.60;;
12114;SDS011;6121;49.810;6.418;2022-09-20T08:23:58;2.55;;;2.28;;
12114;SDS011;6121;49.810;6.418;2022-09-20T08:26:25;2.10;;;2.00;;
12114;SDS011;6121;49.810;6.418;2022-09-20T08:28:53;1.95;;;1.85;;
12114;SDS011;6121;49.810;6.418;2022-09-20T08:31:23;2.88;;;2.13;;
12114;SDS011;6121;49.810;6.418;2022-09-20T08:33:50;2.53;;;2.10;;
12114;SDS011;6121;49.810;6.418;2022-09-20T08:36:18;3.80;;;2.42;;
12114;SDS011;6121;49.810;6.418;2022-09-20T08:38:48;2.22;;;2.13;;
12114;SDS011;6121;49.810;6.418;2022-09-20T08:43:51;2.00;;;1.88;;
12114;SDS011;6121;49.810;6.418;2022-09-20T08:46:34;2.67;;;2.10;;
12114;SDS011;6121;49.810;6.418;2022-09-20T08:49:18;2.13;;;2.03;;
12114;SDS011;6121;49.810;6.418;2022-09-20T08:51:49;1.83;;;1.73;;
12114;SDS011;6121;49.810;6.418;2022-09-20T08:54:16;4.20;;;2.85;;
12114;SDS011;6121;49.810;6.418;2022-09-20T08:56:42;2.50;;;2.30;;
12114;SDS011;6121;49.810;6.418;2022-09-20T08:59:13;4.22;;;2.42;;
12114;SDS011;6121;49.810;6.418;2022-09-20T09:01:43;2.33;;;1.80;;
12114;SDS011;6121;49.810;6.418;2022-09-20T09:04:15;3.03;;;2.72;;
12114;SDS011;6121;49.810;6.418;2022-09-20T09:06:42;2.00;;;1.90;;
12114;SDS011;6121;49.810;6.418;2022-09-20T09:09:13;2.60;;;2.28;;
12114;SDS011;6121;49.810;6.418;2022-09-20T09:11:50;1.83;;;1.73;;
12114;SDS011;6121;49.810;6.418;2022-09-20T09:14:26;1.90;;;1.80;;
12114;SDS011;6121;49.810;6.418;2022-09-20T09:17:20;1.42;;;1.42;;
12114;SDS011;6121;49.810;6.418;2022-09-20T09:19:52;2.80;;;2.05;;
12114;SDS011;6121;49.810;6.418;2022-09-20T09:22:19;3.13;;;2.17;;
12114;SDS011;6121;49.810;6.418;2022-09-20T09:25:26;2.70;;;2.22;;
12114;SDS011;6121;49.810;6.418;2022-09-20T09:28:03;2.03;;;1.83;;
12114;SDS011;6121;49.810;6.418;2022-09-20T09:30:39;1.90;;;1.77;;
12114;SDS011;6121;49.810;6.418;2022-09-20T09:38:36;1.60;;;1.50;;
12114;SDS011;6121;49.810;6.418;2022-09-20T09:41:04;1.43;;;1.43;;
12114;SDS011;6121;49.810;6.418;2022-09-20T09:43:35;2.30;;;1.73;;
12114;SDS011;6121;49.810;6.418;2022-09-20T09:46:23;2.72;;;1.83;;
12114;SDS011;6121;49.810;6.418;2022-09-20T09:49:11;2.40;;;2.20;;
12114;SDS011;6121;49.810;6.418;2022-09-20T09:51:37;2.20;;;1.88;;
12114;SDS011;6121;49.810;6.418;2022-09-20T09:54:08;1.90;;;1.80;;
12114;SDS011;6121;49.810;6.418;2022-09-20T09:56:49;2.60;;;2.17;;
12114;SDS011;6121;49.810;6.418;2022-09-20T09:59:41;2.53;;;2.30;;
12114;SDS011;6121;49.810;6.418;2022-09-20T10:05:04;2.60;;;2.50;;
12114;SDS011;6121;49.810;6.418;2022-09-20T10:10:29;2.38;;;2.13;;
12114;SDS011;6121;49.810;6.418;2022-09-20T10:16:22;2.20;;;2.10;;
12114;SDS011;6121;49.810;6.418;2022-09-20T10:24:11;2.78;;;2.50;;
12114;SDS011;6121;49.810;6.418;2022-09-20T10:26:50;6.90;;;2.92;;
12114;SDS011;6121;49.810;6.418;2022-09-20T10:29:41;2.63;;;2.42;;
12114;SDS011;6121;49.810;6.418;2022-09-20T10:35:19;2.88;;;2.65;;
12114;SDS011;6121;49.810;6.418;2022-09-20T10:43:36;3.30;;;2.40;;
12114;SDS011;6121;49.810;6.418;2022-09-20T10:58:00;2.70;;;2.40;;
12114;SDS011;6121;49.810;6.418;2022-09-20T11:09:11;2.45;;;2.35;;
12114;SDS011;6121;49.810;6.418;2022-09-20T11:11:43;2.47;;;2.27;;
12114;SDS011;6121;49.810;6.418;2022-09-20T11:14:12;3.15;;;2.85;;
12114;SDS011;6121;49.810;6.418;2022-09-20T11:19:42;3.67;;;3.00;;
12114;SDS011;6121;49.810;6.418;2022-09-20T11:22:21;3.60;;;2.70;;
12114;SDS011;6121;49.810;6.418;2022-09-20T11:24:55;3.58;;;3.28;;
12114;SDS011;6121;49.810;6.418;2022-09-20T11:30:12;2.60;;;2.40;;
12114;SDS011;6121;49.810;6.418;2022-09-20T11:32:46;2.35;;;2.15;;
12114;SDS011;6121;49.810;6.418;2022-09-20T11:35:25;3.88;;;3.15;;
12114;SDS011;6121;49.810;6.418;2022-09-20T11:40:27;2.60;;;2.30;;
12114;SDS011;6121;49.810;6.418;2022-09-20T11:43:01;3.20;;;3.00;;
12114;SDS011;6121;49.810;6.418;2022-09-20T11:45:30;4.38;;;4.18;;
12114;SDS011;6121;49.810;6.418;2022-09-20T11:48:42;3.55;;;3.28;;
12114;SDS011;6121;49.810;6.418;2022-09-20T11:51:30;3.72;;;3.42;;
12114;SDS011;6121;49.810;6.418;2022-09-20T11:56:51;3.78;;;3.50;;
12114;SDS011;6121;49.810;6.418;2022-09-20T11:59:32;4.95;;;4.45;;
12114;SDS011;6121;49.810;6.418;2022-09-20T12:01:58;5.13;;;4.10;;
12114;SDS011;6121;49.810;6.418;2022-09-20T12:04:27;5.97;;;5.45;;
12114;SDS011;6121;49.810;6.418;2022-09-20T12:07:05;4.25;;;3.95;;
12114;SDS011;6121;49.810;6.418;2022-09-20T12:09:41;5.03;;;4.22;;
12114;SDS011;6121;49.810;6.418;2022-09-20T12:14:57;6.43;;;5.90;;
12114;SDS011;6121;49.810;6.418;2022-09-20T12:28:56;4.10;;;3.70;;
12114;SDS011;6121;49.810;6.418;2022-09-20T12:36:43;14.23;;;5.50;;
12114;SDS011;6121;49.810;6.418;2022-09-20T12:39:36;15.65;;;5.57;;
12114;SDS011;6121;49.810;6.418;2022-09-20T12:44:39;15.38;;;6.28;;
12114;SDS011;6121;49.810;6.418;2022-09-20T12:58:18;6.15;;;4.22;;
12114;SDS011;6121;49.810;6.418;2022-09-20T13:11:19;4.30;;;3.90;;
12114;SDS011;6121;49.810;6.418;2022-09-20T13:19:05;5.15;;;4.57;;
12114;SDS011;6121;49.810;6.418;2022-09-20T13:21:37;3.55;;;3.25;;
12114;SDS011;6121;49.810;6.418;2022-09-20T13:24:05;4.85;;;4.55;;
12114;SDS011;6121;49.810;6.418;2022-09-20T13:26:38;4.65;;;4.28;;
12114;SDS011;6121;49.810;6.418;2022-09-20T13:29:08;4.43;;;4.03;;
12114;SDS011;6121;49.810;6.418;2022-09-20T13:31:53;4.03;;;3.75;;
12114;SDS011;6121;49.810;6.418;2022-09-20T13:34:23;6.15;;;5.75;;
12114;SDS011;6121;49.810;6.418;2022-09-20T13:36:53;7.03;;;4.32;;
12114;SDS011;6121;49.810;6.418;2022-09-20T13:39:30;5.85;;;4.18;;
12114;SDS011;6121;49.810;6.418;2022-09-20T13:42:04;5.43;;;4.28;;
12114;SDS011;6121;49.810;6.418;2022-09-20T13:44:38;10.10;;;7.13;;
12114;SDS011;6121;49.810;6.418;2022-09-20T13:47:26;9.20;;;4.75;;
12114;SDS011;6121;49.810;6.418;2022-09-20T13:52:43;4.68;;;4.28;;
12114;SDS011;6121;49.810;6.418;2022-09-20T13:57:52;4.97;;;4.28;;
12114;SDS011;6121;49.810;6.418;2022-09-20T14:00:20;8.00;;;5.53;;
12114;SDS011;6121;49.810;6.418;2022-09-20T14:02:46;7.43;;;5.07;;
12114;SDS011;6121;49.810;6.418;2022-09-20T14:05:17;7.33;;;6.23;;
12114;SDS011;6121;49.810;6.418;2022-09-20T14:07:44;5.55;;;5.13;;
12114;SDS011;6121;49.810;6.418;2022-09-20T14:13:13;5.45;;;4.95;;
12114;SDS011;6121;49.810;6.418;2022-09-20T14:15:43;7.18;;;6.55;;
12114;SDS011;6121;49.810;6.418;2022-09-20T14:18:15;8.85;;;5.72;;
12114;SDS011;6121;49.810;6.418;2022-09-20T14:20:45;5.30;;;4.80;;
12114;SDS011;6121;49.810;6.418;2022-09-20T14:23:19;6.75;;;5.65;;
12114;SDS011;6121;49.810;6.418;2022-09-20T14:31:59;16.60;;;9.48;;
12114;SDS011;6121;49.810;6.418;2022-09-20T14:34:30;9.63;;;6.65;;
12114;SDS011;6121;49.810;6.418;2022-09-20T14:37:08;5.70;;;4.37;;
12114;SDS011;6121;49.810;6.418;2022-09-20T14:40:01;7.00;;;4.70;;
12114;SDS011;6121;49.810;6.418;2022-09-20T14:42:41;4.17;;;3.87;;
12114;SDS011;6121;49.810;6.418;2022-09-20T14:45:24;7.15;;;6.18;;
12114;SDS011;6121;49.810;6.418;2022-09-20T14:50:29;6.82;;;5.22;;
12114;SDS011;6121;49.810;6.418;2022-09-20T14:55:31;7.38;;;6.60;;
12114;SDS011;6121;49.810;6.418;2022-09-20T14:58:03;7.27;;;5.87;;
12114;SDS011;6121;49.810;6.418;2022-09-20T15:00:57;11.50;;;7.15;;
12114;SDS011;6121;49.810;6.418;2022-09-20T15:03:30;10.10;;;6.32;;
12114;SDS011;6121;49.810;6.418;2022-09-20T15:06:00;13.30;;;7.25;;
12114;SDS011;6121;49.810;6.418;2022-09-20T15:08:27;9.57;;;5.70;;
12114;SDS011;6121;49.810;6.418;2022-09-20T15:10:53;6.70;;;5.55;;
12114;SDS011;6121;49.810;6.418;2022-09-20T15:13:18;8.70;;;5.63;;
12114;SDS011;6121;49.810;6.418;2022-09-20T15:15:45;8.73;;;6.43;;
12114;SDS011;6121;49.810;6.418;2022-09-20T15:18:19;6.13;;;4.93;;
12114;SDS011;6121;49.810;6.418;2022-09-20T15:20:50;4.83;;;4.53;;
12114;SDS011;6121;49.810;6.418;2022-09-20T15:23:16;5.18;;;4.88;;
12114;SDS011;6121;49.810;6.418;2022-09-20T15:25:42;7.00;;;6.30;;
12114;SDS011;6121;49.810;6.418;2022-09-20T15:28:12;6.97;;;6.37;;
12114;SDS011;6121;49.810;6.418;2022-09-20T15:30:45;5.45;;;4.93;;
12114;SDS011;6121;49.810;6.418;2022-09-20T15:33:12;6.68;;;5.65;;
12114;SDS011;6121;49.810;6.418;2022-09-20T15:35:39;7.95;;;7.30;;
12114;SDS011;6121;49.810;6.418;2022-09-20T15:38:06;6.30;;;5.93;;
12114;SDS011;6121;49.810;6.418;2022-09-20T15:40:35;11.27;;;8.02;;
12114;SDS011;6121;49.810;6.418;2022-09-20T15:43:07;48.50;;;43.90;;
12114;SDS011;6121;49.810;6.418;2022-09-20T15:45:45;37.10;;;20.55;;
12114;SDS011;6121;49.810;6.418;2022-09-20T15:48:16;25.42;;;17.80;;
12114;SDS011;6121;49.810;6.418;2022-09-20T15:50:58;26.00;;;17.10;;
12114;SDS011;6121;49.810;6.418;2022-09-20T15:53:30;19.40;;;12.90;;
12114;SDS011;6121;49.810;6.418;2022-09-20T15:56:00;17.48;;;10.43;;
12114;SDS011;6121;49.810;6.418;2022-09-20T15:58:32;18.90;;;16.27;;
12114;SDS011;6121;49.810;6.418;2022-09-20T16:01:05;38.05;;;35.00;;
12114;SDS011;6121;49.810;6.418;2022-09-20T16:03:31;47.35;;;43.45;;
12114;SDS011;6121;49.810;6.418;2022-09-20T16:05:59;27.67;;;24.80;;
12114;SDS011;6121;49.810;6.418;2022-09-20T16:08:25;72.17;;;67.47;;
12114;SDS011;6121;49.810;6.418;2022-09-20T16:10:58;225.23;;;215.25;;
12114;SDS011;6121;49.810;6.418;2022-09-20T16:13:24;278.92;;;267.27;;
12114;SDS011;6121;49.810;6.418;2022-09-20T16:15:57;142.02;;;135.15;;
12114;SDS011;6121;49.810;6.418;2022-09-20T16:18:24;45.85;;;42.53;;
12114;SDS011;6121;49.810;6.418;2022-09-20T16:21:09;7.15;;;5.55;;
12114;SDS011;6121;49.810;6.418;2022-09-20T16:23:37;32.20;;;29.38;;
12114;SDS011;6121;49.810;6.418;2022-09-20T16:26:04;29.73;;;25.88;;
12114;SDS011;6121;49.810;6.418;2022-09-20T16:28:30;16.38;;;11.48;;
12114;SDS011;6121;49.810;6.418;2022-09-20T16:30:57;73.40;;;68.60;;
12114;SDS011;6121;49.810;6.418;2022-09-20T16:33:23;30.53;;;27.40;;
12114;SDS011;6121;49.810;6.418;2022-09-20T16:35:50;165.70;;;157.13;;
12114;SDS011;6121;49.810;6.418;2022-09-20T16:38:15;183.97;;;175.67;;
12114;SDS011;6121;49.810;6.418;2022-09-20T16:40:42;173.75;;;165.48;;
12114;SDS011;6121;49.810;6.418;2022-09-20T16:43:08;155.57;;;147.95;;
12114;SDS011;6121;49.810;6.418;2022-09-20T16:45:34;139.50;;;132.13;;
12114;SDS011;6121;49.810;6.418;2022-09-20T16:47:59;197.77;;;188.80;;
12114;SDS011;6121;49.810;6.418;2022-09-20T16:50:27;138.48;;;130.82;;
12114;SDS011;6121;49.810;6.418;2022-09-20T16:52:53;282.35;;;270.33;;
12114;SDS011;6121;49.810;6.418;2022-09-20T16:55:19;239.65;;;227.75;;
12114;SDS011;6121;49.810;6.418;2022-09-20T16:57:48;280.35;;;268.25;;
12114;SDS011;6121;49.810;6.418;2022-09-20T17:00:14;288.80;;;275.67;;
12114;SDS011;6121;49.810;6.418;2022-09-20T17:02:44;180.65;;;171.90;;
12114;SDS011;6121;49.810;6.418;2022-09-20T17:05:13;369.08;;;352.52;;
12114;SDS011;6121;49.810;6.418;2022-09-20T17:07:39;182.30;;;173.23;;
12114;SDS011;6121;49.810;6.418;2022-09-20T17:10:06;280.02;;;267.50;;
12114;SDS011;6121;49.810;6.418;2022-09-20T17:12:33;288.05;;;275.23;;
12114;SDS011;6121;49.810;6.418;2022-09-20T17:15:05;364.52;;;349.08;;
12114;SDS011;6121;49.810;6.418;2022-09-20T17:17:31;375.48;;;359.38;;
12114;SDS011;6121;49.810;6.418;2022-09-20T17:19:58;285.38;;;272.83;;
12114;SDS011;6121;49.810;6.418;2022-09-20T17:22:25;343.42;;;329.00;;
12114;SDS011;6121;49.810;6.418;2022-09-20T17:24:51;271.57;;;260.03;;
12114;SDS011;6121;49.810;6.418;2022-09-20T17:27:16;331.30;;;316.53;;
12114;SDS011;6121;49.810;6.418;2022-09-20T17:29:42;308.05;;;294.60;;
12114;SDS011;6121;49.810;6.418;2022-09-20T17:32:08;263.48;;;251.80;;
12114;SDS011;6121;49.810;6.418;2022-09-20T17:34:34;210.67;;;200.53;;
12114;SDS011;6121;49.810;6.418;2022-09-20T17:36:59;145.23;;;137.70;;
12114;SDS011;6121;49.810;6.418;2022-09-20T17:39:27;187.85;;;178.85;;
12114;SDS011;6121;49.810;6.418;2022-09-20T17:41:53;260.48;;;249.00;;
12114;SDS011;6121;49.810;6.418;2022-09-20T17:44:19;531.00;;;498.50;;
12114;SDS011;6121;49.810;6.418;2022-09-20T17:46:45;3.60;;;2.60;;
12114;SDS011;6121;49.810;6.418;2022-09-20T17:49:14;7.13;;;3.63;;
12114;SDS011;6121;49.810;6.418;2022-09-20T17:51:44;114.63;;;108.30;;
12114;SDS011;6121;49.810;6.418;2022-09-20T17:54:12;239.38;;;227.82;;
12114;SDS011;6121;49.810;6.418;2022-09-20T17:56:41;214.13;;;204.30;;
12114;SDS011;6121;49.810;6.418;2022-09-20T17:59:09;141.25;;;134.02;;
12114;SDS011;6121;49.810;6.418;2022-09-20T18:01:36;261.80;;;250.23;;
12114;SDS011;6121;49.810;6.418;2022-09-20T18:04:03;153.50;;;145.75;;
12114;SDS011;6121;49.810;6.418;2022-09-20T18:08:57;37.45;;;33.88;;
12114;SDS011;6121;49.810;6.418;2022-09-20T18:11:34;43.35;;;40.40;;
12114;SDS011;6121;49.810;6.418;2022-09-20T18:14:06;52.22;;;48.70;;
12114;SDS011;6121;49.810;6.418;2022-09-20T18:16:34;16.02;;;14.48;;
12114;SDS011;6121;49.810;6.418;2022-09-20T18:19:01;26.52;;;23.15;;
12114;SDS011;6121;49.810;6.418;2022-09-20T18:21:27;15.98;;;14.48;;
12114;SDS011;6121;49.810;6.418;2022-09-20T18:23:55;16.80;;;15.07;;
12114;SDS011;6121;49.810;6.418;2022-09-20T18:26:22;17.30;;;12.17;;
12114;SDS011;6121;49.810;6.418;2022-09-20T18:29:05;12.88;;;10.18;;
12114;SDS011;6121;49.810;6.418;2022-09-20T18:34:11;19.55;;;17.50;;
12114;SDS011;6121;49.810;6.418;2022-09-20T18:36:41;17.48;;;15.88;;
12114;SDS011;6121;49.810;6.418;2022-09-20T18:39:08;18.97;;;16.90;;
12114;SDS011;6121;49.810;6.418;2022-09-20T18:41:34;63.83;;;59.50;;
12114;SDS011;6121;49.810;6.418;2022-09-20T18:44:03;84.27;;;78.93;;
12114;SDS011;6121;49.810;6.418;2022-09-20T18:46:31;58.67;;;55.30;;
12114;SDS011;6121;49.810;6.418;2022-09-20T18:48:58;50.70;;;47.33;;
12114;SDS011;6121;49.810;6.418;2022-09-20T18:51:29;38.88;;;35.80;;
12114;SDS011;6121;49.810;6.418;2022-09-20T18:53:55;57.85;;;53.88;;
12114;SDS011;6121;49.810;6.418;2022-09-20T18:58:55;70.80;;;66.30;;
12114;SDS011;6121;49.810;6.418;2022-09-20T19:07:10;144.63;;;137.32;;
12114;SDS011;6121;49.810;6.418;2022-09-20T19:10:09;118.65;;;112.20;;
12114;SDS011;6121;49.810;6.418;2022-09-20T19:16:03;84.20;;;79.40;;
12114;SDS011;6121;49.810;6.418;2022-09-20T19:24:27;74.25;;;69.70;;
12114;SDS011;6121;49.810;6.418;2022-09-20T19:27:14;35.97;;;33.72;;
12114;SDS011;6121;49.810;6.418;2022-09-20T19:29:40;68.35;;;63.67;;
12114;SDS011;6121;49.810;6.418;2022-09-20T19:32:08;53.22;;;49.60;;
12114;SDS011;6121;49.810;6.418;2022-09-20T19:34:41;39.72;;;36.72;;
12114;SDS011;6121;49.810;6.418;2022-09-20T19:42:50;18.98;;;17.17;;
12114;SDS011;6121;49.810;6.418;2022-09-20T19:50:52;16.55;;;14.85;;
12114;SDS011;6121;49.810;6.418;2022-09-20T19:53:19;16.70;;;14.20;;
12114;SDS011;6121;49.810;6.418;2022-09-20T19:55:51;13.93;;;12.43;;
12114;SDS011;6121;49.810;6.418;2022-09-20T19:58:20;15.70;;;13.90;;
12114;SDS011;6121;49.810;6.418;2022-09-20T20:00:49;18.90;;;14.98;;
12114;SDS011;6121;49.810;6.418;2022-09-20T20:03:15;16.93;;;14.43;;
12114;SDS011;6121;49.810;6.418;2022-09-20T20:05:44;19.70;;;15.50;;
12114;SDS011;6121;49.810;6.418;2022-09-20T20:11:02;10.98;;;9.48;;
12114;SDS011;6121;49.810;6.418;2022-09-20T20:13:52;11.57;;;10.10;;
12114;SDS011;6121;49.810;6.418;2022-09-20T20:24:31;13.20;;;10.65;;
12114;SDS011;6121;49.810;6.418;2022-09-20T20:27:05;9.77;;;8.75;;
12114;SDS011;6121;49.810;6.418;2022-09-20T20:29:30;13.03;;;10.53;;
12114;SDS011;6121;49.810;6.418;2022-09-20T20:31:56;9.80;;;8.77;;
12114;SDS011;6121;49.810;6.418;2022-09-20T20:34:22;14.13;;;11.48;;
12114;SDS011;6121;49.810;6.418;2022-09-20T20:36:48;10.60;;;8.33;;
12114;SDS011;6121;49.810;6.418;2022-09-20T20:39:14;11.13;;;9.67;;
12114;SDS011;6121;49.810;6.418;2022-09-20T20:41:39;10.35;;;8.70;;
12114;SDS011;6121;49.810;6.418;2022-09-20T20:44:06;12.88;;;10.38;;
12114;SDS011;6121;49.810;6.418;2022-09-20T20:46:32;12.23;;;10.07;;
12114;SDS011;6121;49.810;6.418;2022-09-20T20:48:59;15.30;;;11.15;;
12114;SDS011;6121;49.810;6.418;2022-09-20T20:51:29;8.73;;;7.82;;
12114;SDS011;6121;49.810;6.418;2022-09-20T20:53:57;11.63;;;10.00;;
12114;SDS011;6121;49.810;6.418;2022-09-20T20:56:24;10.65;;;9.25;;
12114;SDS011;6121;49.810;6.418;2022-09-20T20:58:51;13.90;;;9.52;;
12114;SDS011;6121;49.810;6.418;2022-09-20T21:01:19;12.93;;;9.35;;
12114;SDS011;6121;49.810;6.418;2022-09-20T21:03:46;9.77;;;8.40;;
12114;SDS011;6121;49.810;6.418;2022-09-20T21:06:13;10.68;;;8.88;;